createdAt,value
2022-09-12T00:02:03.285Z,99987.72
2022-09-12T00:04:30.520Z,99984.25
2022-09-12T00:06:57.395Z,99972.31
2022-09-12T00:09:24.285Z,99976.94
2022-09-12T00:11:51.427Z,99969.31
2022-09-12T00:14:18.973Z,99964.91
2022-09-12T00:16:45.879Z,99970.75
2022-09-12T00:19:13.105Z,99971.88
2022-09-12T00:21:40.405Z,99967.72
2022-09-12T00:24:07.567Z,99970.75
2022-09-12T00:26:35.119Z,99981.88
2022-09-12T00:29:01.969Z,99987.19
2022-09-12T00:31:28.932Z,99982.88
2022-09-12T00:33:57.916Z,99977.41
2022-09-12T00:36:25.662Z,99976.19
2022-09-12T00:38:55.285Z,99967.94
2022-09-12T00:41:32.251Z,99961.78
2022-09-12T00:44:21.573Z,99970.75
2022-09-12T00:47:01.284Z,99962.91
2022-09-12T00:49:33.509Z,99968.72
2022-09-12T00:52:05.675Z,99978.03
2022-09-12T00:54:36.446Z,99971.66
2022-09-12T00:57:06.703Z,99965.91
2022-09-12T00:59:51.130Z,99973.31
2022-09-12T01:02:18.604Z,99974.47
2022-09-12T01:04:45.652Z,99966.50
2022-09-12T01:07:12.953Z,99968.84
2022-09-12T01:09:40.924Z,99966.56
2022-09-12T01:12:08.614Z,99981.16
2022-09-12T01:14:35.629Z,99974.03
2022-09-12T01:17:02.751Z,99973.69
2022-09-12T01:20:04.876Z,99967.25
2022-09-12T01:22:49.980Z,99972.88
2022-09-12T01:25:55.374Z,99966.56
2022-09-12T01:29:05.510Z,99968.59
2022-09-12T01:31:57.851Z,99966.66
2022-09-12T01:34:51.240Z,99967.94
2022-09-12T01:37:22.457Z,99965.13
2022-09-12T01:40:05.025Z,99969.59
2022-09-12T01:42:44.384Z,99964.28
2022-09-12T01:45:30.736Z,99964.63
2022-09-12T01:48:04.809Z,99965.56
2022-09-12T01:50:34.499Z,99963.53
2022-09-12T01:53:14.631Z,99962.87
2022-09-12T01:55:44.923Z,99958.22
2022-09-12T01:58:21.541Z,99960.81
2022-09-12T02:00:56.833Z,99961.81
2022-09-12T02:03:27.901Z,99968.75
2022-09-12T02:06:00.113Z,99982.69
2022-09-12T02:08:31.101Z,99970.56
2022-09-12T02:11:07.667Z,99972.84
2022-09-12T02:13:36.162Z,99976.94
2022-09-12T02:16:11.982Z,99965.16
2022-09-12T02:18:40.612Z,99969.81
2022-09-12T02:21:07.954Z,99966.31
2022-09-12T02:23:37.995Z,99969.41
2022-09-12T02:26:11.113Z,99979.75
2022-09-12T02:28:41.817Z,99971.78
2022-09-12T02:31:25.366Z,99982.25
2022-09-12T02:34:15.788Z,99986.41
2022-09-12T02:36:45.801Z,99984.50
2022-09-12T02:39:12.961Z,99984.81
2022-09-12T02:41:39.805Z,99987.59
2022-09-12T02:44:06.946Z,99993.75
2022-09-12T02:46:46.907Z,99975.25
2022-09-12T02:49:14.359Z,99988.97
2022-09-12T02:51:41.332Z,99995.94
2022-09-12T02:54:09.239Z,99994.00
2022-09-12T02:56:36.615Z,99981.84
2022-09-12T02:59:06.467Z,99990.94
2022-09-12T03:01:41.039Z,99982.69
2022-09-12T03:04:25.097Z,99989.12
2022-09-12T03:07:02.016Z,99993.72
2022-09-12T03:09:34.329Z,100003.72
2022-09-12T03:12:37.215Z,99997.31
2022-09-12T03:15:23.890Z,99998.69
2022-09-12T03:18:19.761Z,99991.78
2022-09-12T03:20:52.582Z,99996.78
2022-09-12T03:23:33.524Z,99988.84
2022-09-12T03:26:26.070Z,99989.81
2022-09-12T03:28:54.637Z,99994.88
2022-09-12T03:31:25.133Z,99992.28
2022-09-12T03:33:54.820Z,99991.28
2022-09-12T03:36:27.126Z,99997.75
2022-09-12T03:38:57.104Z,99991.28
2022-09-12T03:41:24.241Z,99993.50
2022-09-12T03:43:53.950Z,99988.78
2022-09-12T03:46:23.564Z,99996.84
2022-09-12T03:48:53.889Z,99997.38
2022-09-12T03:51:23.593Z,99992.75
2022-09-12T03:53:50.735Z,99982.31
2022-09-12T03:56:19.430Z,99991.25
2022-09-12T03:58:46.836Z,99991.78
2022-09-12T04:01:20.942Z,100000.72
2022-09-12T04:03:52.259Z,99998.91
2022-09-12T04:06:23.477Z,99999.06
2022-09-12T04:08:54.594Z,99999.88
2022-09-12T04:11:24.628Z,100000.56
2022-09-12T04:13:54.562Z,100006.44
2022-09-12T04:16:24.374Z,100006.84
2022-09-12T04:18:54.428Z,100009.66
2022-09-12T04:21:24.571Z,100003.81
2022-09-12T04:23:54.417Z,100005.88
2022-09-12T04:26:21.379Z,100006.69
2022-09-12T04:28:50.791Z,100010.44
2022-09-12T04:31:21.459Z,100010.13
2022-09-12T04:33:53.750Z,100005.41
2022-09-12T04:36:24.781Z,100005.09
2022-09-12T04:38:55.383Z,100009.81
2022-09-12T04:41:25.345Z,100011.19
2022-09-12T04:43:54.018Z,100017.09
2022-09-12T04:46:24.589Z,100014.22
2022-09-12T04:48:56.506Z,100025.06
2022-09-12T04:51:32.186Z,100020.88
2022-09-12T04:54:11.877Z,100021.00
2022-09-12T04:56:40.242Z,100019.00
2022-09-12T04:59:08.656Z,100025.31
2022-09-12T05:01:35.950Z,100025.69
2022-09-12T05:04:03.743Z,100024.38
2022-09-12T05:06:34.450Z,100036.09
2022-09-12T05:09:02.297Z,100040.25
2022-09-12T05:11:53.042Z,100042.22
2022-09-12T05:14:18.927Z,100037.44
2022-09-12T05:16:49.187Z,100041.84
2022-09-12T05:19:17.235Z,100040.53
2022-09-12T05:21:44.470Z,100042.28
2022-09-12T05:24:11.634Z,100045.31
2022-09-12T05:26:38.663Z,100049.41
2022-09-12T05:29:07.130Z,100067.69
2022-09-12T05:31:34.826Z,100053.72
2022-09-12T05:34:04.626Z,100055.41
2022-09-12T05:36:31.954Z,100050.13
2022-09-12T05:39:01.958Z,100060.97
2022-09-12T05:41:30.906Z,100052.53
2022-09-12T05:44:02.903Z,100056.94
2022-09-12T05:46:31.403Z,100063.69
2022-09-12T05:49:03.435Z,100064.09
2022-09-12T05:51:33.543Z,100065.78
2022-09-12T05:54:01.786Z,100062.16
2022-09-12T05:56:30.799Z,100067.63
2022-09-12T05:59:03.734Z,100065.66
2022-09-12T06:01:33.309Z,100066.50
2022-09-12T06:04:01.980Z,100068.34
2022-09-12T06:06:30.297Z,100070.50
2022-09-12T06:08:59.490Z,100073.25
2022-09-12T06:11:28.633Z,100065.22
2022-09-12T06:13:56.963Z,100071.84
2022-09-12T06:16:26.128Z,100086.78
2022-09-12T06:19:02.320Z,100078.50
2022-09-12T06:21:31.255Z,100091.87
2022-09-12T06:23:58.936Z,100090.81
2022-09-12T06:26:26.213Z,100077.84
2022-09-12T06:28:54.425Z,100089.44
2022-09-12T06:31:33.583Z,100077.31
2022-09-12T06:34:02.803Z,100077.44
2022-09-12T06:36:36.487Z,100081.94
2022-09-12T06:39:10.126Z,100081.75
2022-09-12T06:41:40.466Z,100082.88
2022-09-12T06:44:19.365Z,100073.84
2022-09-12T06:46:47.236Z,100079.66
2022-09-12T06:49:14.213Z,100086.53
2022-09-12T06:51:42.116Z,100082.13
2022-09-12T06:54:10.711Z,100091.34
2022-09-12T06:56:37.734Z,100090.81
2022-09-12T06:59:04.598Z,100088.91
2022-09-12T07:01:32.216Z,100079.22
2022-09-12T07:04:00.893Z,100082.22
2022-09-12T07:06:32.040Z,100083.09
2022-09-12T07:09:00.200Z,100080.97
2022-09-12T07:11:32.512Z,100095.41
2022-09-12T07:14:01.037Z,100090.81
2022-09-12T07:16:28.553Z,100099.34
2022-09-12T07:18:57.583Z,100100.41
2022-09-12T07:21:25.186Z,100090.81
2022-09-12T07:23:52.749Z,100101.78
2022-09-12T07:26:20.458Z,100097.50
2022-09-12T07:28:54.705Z,100093.41
2022-09-12T07:31:23.998Z,100103.19
2022-09-12T07:33:54.771Z,100103.94
2022-09-12T07:36:25.815Z,100097.22
2022-09-12T07:38:57.609Z,100095.91
2022-09-12T07:41:26.923Z,100102.44
2022-09-12T07:43:56.062Z,100102.09
2022-09-12T07:46:27.257Z,100102.88
2022-09-12T07:48:56.443Z,100110.69
2022-09-12T07:51:24.606Z,100114.06
2022-09-12T07:53:51.879Z,100109.97
2022-09-12T07:56:32.727Z,100109.38
2022-09-12T07:59:01.630Z,100113.09
2022-09-12T08:01:28.767Z,100111.41
2022-09-12T08:03:58.629Z,100120.38
2022-09-12T08:06:27.070Z,100118.41
2022-09-12T08:08:57.937Z,100116.81
2022-09-12T08:11:27.975Z,100117.00
2022-09-12T08:13:57.096Z,100106.28
2022-09-12T08:16:26.512Z,100108.22
2022-09-12T08:18:53.773Z,100107.03
2022-09-12T08:21:23.363Z,100102.38
2022-09-12T08:23:58.993Z,100103.69
2022-09-12T08:26:26.454Z,100112.78
2022-09-12T08:28:56.373Z,100107.56
2022-09-12T08:31:25.389Z,100117.34
2022-09-12T08:33:56.420Z,100116.81
2022-09-12T08:36:27.713Z,100113.25
2022-09-12T08:38:59.572Z,100116.91
2022-09-12T08:41:41.631Z,100107.84
2022-09-12T08:44:40.171Z,100120.44
2022-09-12T08:47:28.081Z,100123.69
2022-09-12T08:50:10.474Z,100126.38
2022-09-12T08:52:54.597Z,100117.00
2022-09-12T08:55:42.808Z,100123.81
2022-09-12T08:58:17.070Z,100117.12
2022-09-12T09:01:14.241Z,100121.19
2022-09-12T09:03:53.235Z,100113.69
2022-09-12T09:06:40.781Z,100111.78
2022-09-12T09:09:25.871Z,100112.44
2022-09-12T09:12:15.838Z,100103.09
2022-09-12T09:15:12.605Z,100091.97
2022-09-12T09:17:45.543Z,100106.38
2022-09-12T09:20:33.255Z,100094.41
2022-09-12T09:23:32.674Z,100096.22
2022-09-12T09:26:09.618Z,100100.81
2022-09-12T09:28:39.869Z,100092.13
2022-09-12T09:31:15.750Z,100089.41
2022-09-12T09:33:43.727Z,100084.13
2022-09-12T09:36:20.808Z,100093.16
2022-09-12T09:39:07.576Z,100091.47
2022-09-12T09:41:49.339Z,100092.06
2022-09-12T09:44:17.081Z,100096.62
2022-09-12T09:46:43.904Z,100096.38
2022-09-12T09:49:13.286Z,100091.84
2022-09-12T09:51:41.748Z,100095.28
2022-09-12T09:54:19.247Z,100094.03
2022-09-12T09:56:46.303Z,100090.75
2022-09-12T09:59:21.769Z,100094.44
2022-09-12T10:01:57.467Z,100102.03
2022-09-12T10:04:26.863Z,100101.06
2022-09-12T10:06:58.648Z,100089.94
2022-09-12T10:09:38.635Z,100091.69
2022-09-12T10:12:28.579Z,100095.06
2022-09-12T10:15:03.684Z,100094.25
2022-09-12T10:17:34.451Z,100100.47
2022-09-12T10:20:20.468Z,100084.28
2022-09-12T10:22:49.063Z,100093.00
2022-09-12T10:25:16.955Z,100090.53
2022-09-12T10:27:43.777Z,100100.03
2022-09-12T10:30:19.701Z,100095.44
2022-09-12T10:32:52.332Z,100088.41
2022-09-12T10:35:22.094Z,100090.91
2022-09-12T10:38:02.352Z,100092.16
2022-09-12T10:40:38.376Z,100095.47
2022-09-12T10:43:31.138Z,100096.53
2022-09-12T10:45:59.293Z,100106.66
2022-09-12T10:48:34.090Z,100094.84
2022-09-12T10:51:01.392Z,100099.59
2022-09-12T10:53:42.067Z,100087.78
2022-09-12T10:57:00.340Z,100092.97
2022-09-12T11:00:17.310Z,100082.62
2022-09-12T11:03:06.921Z,100092.19
2022-09-12T11:05:40.164Z,100082.66
2022-09-12T11:08:36.944Z,100083.59
2022-09-12T11:11:26.315Z,100079.34
2022-09-12T11:13:58.445Z,100087.00
2022-09-12T11:16:42.675Z,100087.59
2022-09-12T11:19:35.948Z,100083.44
2022-09-12T11:22:31.747Z,100079.72
2022-09-12T11:25:20.736Z,100093.19
2022-09-12T11:28:13.263Z,100087.19
2022-09-12T11:30:49.533Z,100088.88
2022-09-12T11:33:27.017Z,100089.53
2022-09-12T11:35:57.231Z,100088.72
2022-09-12T11:38:43.041Z,100082.75
2022-09-12T11:41:17.260Z,100086.06
2022-09-12T11:44:08.490Z,100075.50
2022-09-12T11:46:39.762Z,100086.28
2022-09-12T11:49:11.788Z,100081.34
2022-09-12T11:52:11.771Z,100075.19
2022-09-12T11:54:40.359Z,100066.31
2022-09-12T11:57:20.975Z,100078.84
2022-09-12T11:59:58.614Z,100078.94
2022-09-12T12:02:30.655Z,100067.50
2022-09-12T12:05:15.681Z,100068.50
2022-09-12T12:07:46.186Z,100063.53
2022-09-12T12:10:30.955Z,100063.97
2022-09-12T12:12:59.104Z,100067.03
2022-09-12T12:15:26.611Z,100064.16
2022-09-12T12:18:01.227Z,100055.25
2022-09-12T12:20:28.723Z,100058.59
2022-09-12T12:22:55.773Z,100057.53
2022-09-12T12:25:29.661Z,100053.53
2022-09-12T12:28:01.300Z,100046.50
2022-09-12T12:30:31.223Z,100051.88
2022-09-12T12:33:07.122Z,100044.59
2022-09-12T12:35:42.868Z,100048.66
2022-09-12T12:38:31.739Z,100047.63
2022-09-12T12:41:16.737Z,100052.97
2022-09-12T12:43:45.458Z,100049.09
2022-09-12T12:46:16.977Z,100057.03
2022-09-12T12:48:52.767Z,100044.41
2022-09-12T12:51:42.933Z,100044.81
2022-09-12T12:54:29.731Z,100047.06
2022-09-12T12:57:19.627Z,100059.09
2022-09-12T12:59:55.049Z,100052.84
2022-09-12T13:02:35.533Z,100051.19
2022-09-12T13:05:15.551Z,100035.75
2022-09-12T13:07:43.986Z,100053.19
2022-09-12T13:10:31.381Z,100046.56
2022-09-12T13:13:01.340Z,100047.16
2022-09-12T13:15:30.062Z,100039.94
2022-09-12T13:18:02.021Z,100036.16
2022-09-12T13:20:31.895Z,100038.47
2022-09-12T13:22:58.954Z,100040.47
2022-09-12T13:25:32.835Z,100032.81
2022-09-12T13:28:07.280Z,100022.88
2022-09-12T13:30:36.972Z,100011.66
2022-09-12T13:33:11.539Z,100011.94
2022-09-12T13:36:11.185Z,100012.19
2022-09-12T13:39:03.364Z,100014.50
2022-09-12T13:41:43.547Z,100011.81
2022-09-12T13:44:13.400Z,100004.94
2022-09-12T13:46:40.511Z,99996.50
2022-09-12T13:49:29.977Z,100005.63
2022-09-12T13:52:03.292Z,99996.94
2022-09-12T13:54:30.762Z,100003.97
2022-09-12T13:56:57.946Z,99999.84
2022-09-12T13:59:24.763Z,99996.53
2022-09-12T14:01:51.831Z,100001.97
2022-09-12T14:04:41.632Z,100006.91
2022-09-12T14:07:22.204Z,100009.00
2022-09-12T14:09:57.120Z,100009.16
2022-09-12T14:12:26.173Z,100009.56
2022-09-12T14:14:53.514Z,100003.97
2022-09-12T14:17:32.770Z,100009.19
2022-09-12T14:20:06.855Z,99994.69
2022-09-12T14:22:34.768Z,100005.41
2022-09-12T14:25:02.312Z,100012.06
2022-09-12T14:27:32.283Z,99997.97
2022-09-12T14:30:09.078Z,100010.19
2022-09-12T14:32:36.248Z,99994.28
2022-09-12T14:35:11.811Z,100002.75
2022-09-12T14:37:39.292Z,100010.63
2022-09-12T14:40:19.648Z,99997.16
2022-09-12T14:42:50.880Z,100016.59
2022-09-12T14:45:24.915Z,100005.84
2022-09-12T14:47:53.079Z,99998.38
2022-09-12T14:50:23.359Z,100005.03
2022-09-12T14:53:30.749Z,99999.41
2022-09-12T14:56:06.785Z,100001.66
2022-09-12T14:58:33.671Z,99986.59
2022-09-12T15:01:07.099Z,100006.03
2022-09-12T15:03:37.079Z,99981.62
2022-09-12T15:06:07.891Z,99993.94
2022-09-12T15:08:34.752Z,99992.19
2022-09-12T15:11:01.560Z,99993.00
2022-09-12T15:13:30.109Z,99993.37
2022-09-12T15:15:58.527Z,99990.88
2022-09-12T15:18:29.190Z,99980.75
2022-09-12T15:21:03.349Z,99975.63
2022-09-12T15:23:49.453Z,99978.75
2022-09-12T15:26:30.488Z,99971.31
2022-09-12T15:28:57.959Z,99967.59
2022-09-12T15:31:32.193Z,99972.34
2022-09-12T15:34:01.074Z,99977.28
2022-09-12T15:36:31.386Z,99973.59
2022-09-12T15:38:58.289Z,99982.22
2022-09-12T15:41:36.973Z,99974.38
2022-09-12T15:44:10.640Z,99971.06
2022-09-12T15:46:37.486Z,99981.41
2022-09-12T15:49:04.596Z,99971.91
2022-09-12T15:51:31.364Z,99977.44
2022-09-12T15:53:58.168Z,99972.31
2022-09-12T15:56:25.250Z,99976.84
2022-09-12T15:58:59.066Z,99970.63
2022-09-12T16:01:27.022Z,99967.28
2022-09-12T16:03:54.324Z,99971.78
2022-09-12T16:06:24.096Z,99972.59
2022-09-12T16:08:53.789Z,99980.16
2022-09-12T16:11:25.946Z,99971.25
2022-09-12T16:13:56.822Z,99982.84
2022-09-12T16:16:23.988Z,99981.59
2022-09-12T16:18:52.091Z,99978.81
2022-09-12T16:21:18.927Z,99988.00
2022-09-12T16:23:46.884Z,99983.09
2022-09-12T16:26:14.339Z,99983.84
2022-09-12T16:28:41.261Z,99989.06
2022-09-12T16:31:11.158Z,99982.88
2022-09-12T16:33:38.713Z,99981.59
2022-09-12T16:36:10.702Z,99985.22
2022-09-12T16:38:41.911Z,99985.56
2022-09-12T16:41:08.768Z,99983.94
2022-09-12T16:43:35.894Z,99976.84
2022-09-12T16:46:14.222Z,99984.41
2022-09-12T16:48:49.524Z,99985.31
2022-09-12T16:51:26.038Z,99976.75
2022-09-12T16:53:56.503Z,99975.03
2022-09-12T16:56:26.626Z,99974.88
2022-09-12T16:58:56.619Z,99976.28
2022-09-12T17:01:24.408Z,99968.00
2022-09-12T17:03:56.412Z,99978.59
2022-09-12T17:06:27.242Z,99977.31
2022-09-12T17:09:00.725Z,99973.16
2022-09-12T17:11:33.132Z,99983.72
2022-09-12T17:14:05.027Z,99984.22
2022-09-12T17:16:34.487Z,99975.63
2022-09-12T17:19:01.300Z,99986.03
2022-09-12T17:21:28.185Z,99983.53
2022-09-12T17:23:55.335Z,99976.88
2022-09-12T17:26:22.534Z,99979.66
2022-09-12T17:28:49.569Z,99990.22
2022-09-12T17:31:18.418Z,99983.78
2022-09-12T17:33:45.308Z,99989.09
2022-09-12T17:36:15.260Z,99993.72
2022-09-12T17:38:44.281Z,99982.88
2022-09-12T17:41:17.538Z,99987.97
2022-09-12T17:43:52.745Z,99995.84
2022-09-12T17:46:22.155Z,99995.75
2022-09-12T17:48:56.995Z,100013.00
2022-09-12T17:51:28.915Z,100012.53
2022-09-12T17:54:01.475Z,100014.75
2022-09-12T17:56:30.046Z,100020.22
2022-09-12T17:58:58.115Z,100012.22
2022-09-12T18:01:44.141Z,100011.22
2022-09-12T18:04:11.358Z,100018.22
2022-09-12T18:06:38.513Z,100020.22
2022-09-12T18:09:07.823Z,100025.25
2022-09-12T18:11:35.596Z,100023.66
2022-09-12T18:14:02.729Z,100031.69
2022-09-12T18:16:31.351Z,100027.88
2022-09-12T18:19:01.187Z,100037.75
2022-09-12T18:21:28.955Z,100038.06
2022-09-12T18:23:59.243Z,100034.94
2022-09-12T18:26:27.960Z,100032.97
2022-09-12T18:28:58.176Z,100033.81
2022-09-12T18:31:29.756Z,100035.97
2022-09-12T18:33:59.627Z,100043.16
2022-09-12T18:36:27.150Z,100042.66
2022-09-12T18:38:53.994Z,100045.19
2022-09-12T18:41:22.537Z,100039.50
2022-09-12T18:43:53.882Z,100039.53
2022-09-12T18:46:22.896Z,100039.19
2022-09-12T18:48:52.247Z,100039.88
2022-09-12T18:51:25.683Z,100039.19
2022-09-12T18:53:58.041Z,100039.34
2022-09-12T18:56:27.686Z,100037.53
2022-09-12T18:58:56.707Z,100037.22
2022-09-12T19:01:31.390Z,100050.22
2022-09-12T19:03:59.105Z,100048.25
2022-09-12T19:06:27.871Z,100051.41
2022-09-12T19:08:58.693Z,100051.56
2022-09-12T19:11:27.150Z,100046.22
2022-09-12T19:13:57.050Z,100061.91
2022-09-12T19:16:28.447Z,100053.87
2022-09-12T19:18:59.903Z,100052.06
2022-09-12T19:21:28.714Z,100050.25
2022-09-12T19:23:58.169Z,100043.56
2022-09-12T19:26:25.325Z,100050.06
2022-09-12T19:28:55.639Z,100055.72
2022-09-12T19:31:25.925Z,100052.38
2022-09-12T19:34:01.031Z,100058.50
2022-09-12T19:36:44.400Z,100055.62
2022-09-12T19:39:11.973Z,100056.28
2022-09-12T19:41:39.223Z,100057.44
2022-09-12T19:44:06.006Z,100055.56
2022-09-12T19:46:33.023Z,100065.34
2022-09-12T19:49:00.126Z,100052.38
2022-09-12T19:51:26.896Z,100058.50
2022-09-12T19:53:53.851Z,100058.78
2022-09-12T19:56:22.559Z,100059.94
2022-09-12T19:58:55.773Z,100067.56
2022-09-12T20:01:28.494Z,100068.38
2022-09-12T20:03:58.987Z,100064.03
2022-09-12T20:06:26.532Z,100062.50
2022-09-12T20:08:56.197Z,100068.84
2022-09-12T20:11:26.057Z,100059.81
2022-09-12T20:13:55.675Z,100057.78
2022-09-12T20:16:29.074Z,100054.41
2022-09-12T20:19:01.975Z,100061.19
2022-09-12T20:21:35.724Z,100060.25
2022-09-12T20:24:13.282Z,100059.53
2022-09-12T20:26:40.418Z,100065.78
2022-09-12T20:29:08.419Z,100064.34
2022-09-12T20:31:36.985Z,100063.16
2022-09-12T20:34:04.518Z,100059.59
2022-09-12T20:36:31.903Z,100064.16
2022-09-12T20:39:00.138Z,100063.75
2022-09-12T20:41:28.986Z,100065.34
2022-09-12T20:43:56.871Z,100061.72
2022-09-12T20:46:27.702Z,100071.13
2022-09-12T20:48:58.454Z,100066.94
2022-09-12T20:51:30.192Z,100069.88
2022-09-12T20:53:58.593Z,100075.13
2022-09-12T20:56:27.112Z,100073.66
2022-09-12T20:58:57.290Z,100064.75
2022-09-12T21:01:28.366Z,100067.97
2022-09-12T21:03:59.724Z,100060.84
2022-09-12T21:06:26.528Z,100064.75
2022-09-12T21:08:54.604Z,100061.44
2022-09-12T21:11:24.680Z,100057.87
2022-09-12T21:13:51.971Z,100061.19
2022-09-12T21:16:22.631Z,100068.47
2022-09-12T21:18:57.699Z,100060.97
2022-09-12T21:21:25.275Z,100062.66
2022-09-12T21:23:59.614Z,100069.38
2022-09-12T21:26:26.753Z,100070.41
2022-09-12T21:28:53.856Z,100071.66
2022-09-12T21:31:23.063Z,100073.91
2022-09-12T21:33:52.983Z,100076.19
2022-09-12T21:36:20.041Z,100075.63
2022-09-12T21:38:46.819Z,100082.06
2022-09-12T21:41:14.986Z,100082.34
2022-09-12T21:43:42.319Z,100075.66
2022-09-12T21:46:09.910Z,100084.00
2022-09-12T21:48:37.306Z,100087.06
2022-09-12T21:51:04.468Z,100080.25
2022-09-12T21:53:31.872Z,100089.72
2022-09-12T21:56:07.165Z,100091.84
2022-09-12T21:58:34.851Z,100085.56
2022-09-12T22:01:01.892Z,100087.97
2022-09-12T22:03:29.378Z,100079.44
2022-09-12T22:06:00.454Z,100087.41
2022-09-12T22:08:27.900Z,100081.97
2022-09-12T22:10:59.783Z,100081.03
2022-09-12T22:13:26.615Z,100082.84
2022-09-12T22:15:53.436Z,100075.75
2022-09-12T22:18:20.510Z,100078.38
2022-09-12T22:20:47.285Z,100080.06
2022-09-12T22:23:32.727Z,100077.94
2022-09-12T22:26:01.394Z,100075.03
2022-09-12T22:28:29.702Z,100082.09
2022-09-12T22:30:56.787Z,100082.81
2022-09-12T22:33:23.864Z,100078.19
2022-09-12T22:35:50.662Z,100085.72
2022-09-12T22:38:17.416Z,100082.97
2022-09-12T22:40:44.451Z,100090.63
2022-09-12T22:43:11.742Z,100088.69
2022-09-12T22:45:41.092Z,100090.22
2022-09-12T22:48:09.302Z,100106.34
2022-09-12T22:50:36.343Z,100113.88
2022-09-12T22:53:03.152Z,100100.78
2022-09-12T22:55:30.284Z,100098.28
2022-09-12T22:57:57.076Z,100098.44
2022-09-12T23:00:23.899Z,100103.62
2022-09-12T23:02:50.908Z,100105.03
2022-09-12T23:05:17.700Z,100111.72
2022-09-12T23:07:44.475Z,100105.00
2022-09-12T23:10:11.846Z,100111.16
2022-09-12T23:12:38.622Z,100100.81
2022-09-12T23:15:05.805Z,100103.91
2022-09-12T23:17:35.035Z,100097.50
2022-09-12T23:20:02.522Z,100097.22
2022-09-12T23:22:29.380Z,100100.44
2022-09-12T23:24:56.449Z,100099.03
2022-09-12T23:27:27.004Z,100088.28
2022-09-12T23:29:53.864Z,100096.53
2022-09-12T23:32:21.163Z,100094.44
2022-09-12T23:34:48.354Z,100094.31
2022-09-12T23:37:15.656Z,100095.00
2022-09-12T23:39:42.806Z,100082.31
2022-09-12T23:42:09.655Z,100090.81
2022-09-12T23:44:36.443Z,100100.56
2022-09-12T23:47:03.523Z,100085.50
2022-09-12T23:49:30.352Z,100090.34
2022-09-12T23:51:57.191Z,100091.44
2022-09-12T23:54:25.059Z,100091.00
2022-09-12T23:56:51.983Z,100096.56
2022-09-12T23:59:18.768Z,100100.88
